AirNav   Air Wisconsin Up To $57,000 Bonus
 
 1253 users online  

L88 New Cuyama Airport
New Cuyama, California, USA

GOING TO NEW CUYAMA?


FAA INFORMATION EFFECTIVE 30 JANUARY 2020

Location

FAA Identifier: L88
Lat/Long: 34-56-23.8000N 119-41-08.1000W
34-56.396667N 119-41.135000W
34.9399444,-119.6855833
(estimated)
Elevation: 2203 ft. / 671 m (estimated)
Variation: 14E (1985)
Time zone: UTC -8 (UTC -7 during Daylight Saving Time)
Zip code: 93254

Airport Operations

Airport use: CLOSED INDEFINITELY
Activation date: 09/1950
Control tower: no
ARTCC: LOS ANGELES CENTER
FSS: RANCHO MURIETA FLIGHT SERVICE STATION
NOTAMs facility: RIU (NOTAM-D service available)
Attendance: UNATNDD
Wind indicator: yes
Segmented circle: yes

Airport Communications

CTAF: 122.9

Nearby radio navigation aids

VOR radial/distance  VOR name  Freq  Var
FLWr120/12.8FELLOWS VOR/DME117.5016E
RZSr355/26.2SAN MARCUS VORTAC114.9014E
GVOr023/31.6GAVIOTA VORTAC113.8016E

Airport Services

Parking: tiedowns
Airframe service: NONE
Powerplant service: NONE
Bottled oxygen: NONE
Bulk oxygen: NONE

Runway Information

Runway 10/28

Dimensions: 3940 x 60 ft. / 1201 x 18 m
Surface: asphalt, in poor condition
RUNWAY 10  RUNWAY 28
Latitude: 34-56.541333N34-56.251667N
Longitude: 119-41.488833W119-40.782667W
Traffic pattern: rightleft
Markings: basic, in fair conditionbasic, in fair condition
Runway end identifier lights: nono
Obstructions: 20 ft. tree, 250 ft. from runway, 2:1 slope to clear4 ft. fence, 200 ft. from runway, 80 ft. left of centerline

Airport Ownership and Management from official FAA records

Ownership: Privately-owned
Owner: BLUE SKY SUSTAINABLE LIVING CENTER
P.O. BOX 271
NEW CUYAMA, CA 93254
Phone 661-413-3005
Manager: EMILY JOHNSON
PO BOX 271
NEW CUYAMA, CA 93254
Phone 805-770-0926

Airport Operational Statistics

Aircraft operations: avg 42/month *
100% transient general aviation
* for 12-month period ending 17 June 2019

Additional Remarks

ACFT PRKG 125 FT N OF RWY CNTRLN AT RWY 10 APCH END.
RWY 10 +25 FT PWR POLES & PLINES RUN PARTIALLY UNDERGROUND 270 FT BYD RWY END, 164 FT R OF CNTRLN.
FOR CD CTC LOS ANGELES ARTCC AT 661-575-2079.
(ARPT STATUS) ARPT CLSD INDEFLY.

Instrument Procedures

There are no published instrument procedures at L88.

Some nearby airports with instrument procedures:

KIZA - Santa Ynez Airport (28 nm SW)
KSBA - Santa Barbara Municipal Airport (32 nm S)
KSMX - Santa Maria Public Airport/Capt G Allan Hancock Field (38 nm W)
L45 - Bakersfield Municipal Airport (41 nm NE)
KMIT - Shafter Airport-Minter Field (42 nm NE)
 
Loc | Ops | Rwys | IFR | FBO | Links
Com | Nav | Svcs | Stats | Notes
Area around L88 (New Cuyama Airport)
 
Road maps at: MapQuest Bing Google
 
Aerial photo
WARNING: Photo may not be current or correct
Aerial photo of L88 (New Cuyama Airport)
Photo taken 03-Mar-2016
looking west.

Do you have a better or more recent aerial photo of New Cuyama Airport that you would like to share? If so, please send us your photo.

 
Sectional chart

 
Airport distance calculator
Flying to New Cuyama Airport? Find the distance to fly.

From to L88

Sunrise and sunset
Times for 26-Feb-2020
 Local
(UTC-8)
 Zulu
(UTC)
Morning civil twilight06:0714:07
Sunrise06:3314:33
Sunset17:5101:51
Evening civil twilight18:1602:16

Current date and time
Zulu (UTC)  27-Feb-2020 00:15:58
Local (UTC-8)  26-Feb-2020 16:15:58
 
METAR
KIZA 
28nm SW 
262355Z AUTO 29010G16KT 10SM CLR 24/M02 A3022 RMK AO2
KSBA 
31nm S 
262353Z 26009KT 10SM CLR 23/M07 A3020 RMK AO2 SLP228 T02281067 10233 20200 56019 $
KSMX 
38nm W 
262351Z 33013KT 10SM SCT200 22/01 A3025 RMK AO2 SLP244 T02170011 10267 20211 56012
KLPC 
42nm SW 
262356Z AUTO 27012KT 10SM CLR 22/02 A3024 RMK AO2 SLP241 T02170017 10272 20217 56009
KBFL 
43nm NE 
262354Z 34009KT 260V010 10SM CLR 27/M02 A3023 RMK AO2 SLP233 T02671022 10278 20183 56016
KL52 
47nm W 
262355Z AUTO 28006KT 10SM CLR 20/04 A3025 RMK A01
KVBG 
47nm SW 
262358Z 34006KT 10SM CLR 21/M01 A3026 RMK AO2A SLP247 T02091014 10255 20209 56012 $
KSDB 
49nm E 
262353Z AUTO 03013G19KT 10SM CLR 15/M09 A3035 RMK AO2 SLP248 T01501089 10161 20117 56013 $
KSBP 
50nm W 
262356Z AUTO 32012KT 10SM CLR 23/M02 A3024 RMK AO2 SLP239 T02281017 10256 20206 58014
TAF
KSBA 
31nm S 
261720Z 2618/2718 00000KT P6SM SKC FM262000 24008KT P6SM SKC FM270200 VRB03KT P6SM SKC FM270900 00000KT P6SM SKC
KSMX 
38nm W 
262127Z 2621/2718 23013KT P6SM SKC FM270300 VRB03KT P6SM SKC FM270900 00000KT P6SM SKC
NOTAMs
Click for the latest NOTAMs
NOTAMs are issued by the DoD/FAA and will open in a separate window not controlled by AirNav.

 

 
 

Would you like to see your business listed on this page?

 If your business provides an interesting product or service to pilots, flight crews, aircraft, or users of the New Cuyama Airport, you should consider listing it here.  To start the listing process, click on the button below
 
Add a business
 

Other Pages about New Cuyama Airport

Update a link
 
Copyright © AirNav, LLC. All rights reserved. Privacy Policy  Contact